Time;durP1;ratioP1;P1;durP2;ratioP2;P2;SDS_P1;SDS_P2;PMS_P1;PMS_P2;Temp;Humidity;BMP_temperature;BMP_pressure;BME280_temperature;BME280_humidity;BME280_pressure;Samples;Min_cycle;Max_cycle;Signal;HPM_P1;HPM_P2
2022/09/26 00:01:29;;;;;;;13.00;7.80;;;;;;;17.96;58.08;98261.47;7004149;28;20210;-80
2022/09/26 00:04:50;;;;;;;9.90;7.70;;;;;;;17.74;58.33;98241.75;7004545;28;20302;-80
2022/09/26 00:08:12;;;;;;;10.43;7.70;;;;;;;17.76;58.66;98283.19;7004378;28;20588;-80
2022/09/26 00:11:34;;;;;;;10.03;7.67;;;;;;;17.44;59.75;98268.78;7004360;28;20294;-80
2022/09/26 00:14:57;;;;;;;10.10;8.87;;;;;;;17.55;59.97;98284.97;7004538;28;20199;-80
2022/09/26 00:18:18;;;;;;;11.90;9.37;;;;;;;17.40;60.49;98279.38;7003770;28;20784;-80
2022/09/26 00:21:40;;;;;;;10.23;8.33;;;;;;;17.55;59.95;98278.69;7004092;28;20352;-81
2022/09/26 00:25:01;;;;;;;10.27;8.50;;;;;;;17.55;59.71;98265.88;7004380;28;20268;-80
2022/09/26 00:28:23;;;;;;;14.00;8.77;;;;;;;17.32;59.74;98249.03;7003675;28;20291;-80
2022/09/26 00:31:47;;;;;;;12.20;9.20;;;;;;;17.09;60.26;98271.19;7004487;28;20215;-80
2022/09/26 00:35:09;;;;;;;14.37;9.93;;;;;;;17.26;60.19;98285.50;7004389;28;20208;-80
2022/09/26 00:38:31;;;;;;;12.63;9.77;;;;;;;17.26;60.21;98274.59;7003146;28;20226;-80
2022/09/26 00:41:52;;;;;;;13.53;9.40;;;;;;;17.29;60.58;98268.66;7003497;28;20221;-80
2022/09/26 00:45:14;;;;;;;11.20;8.70;;;;;;;17.37;60.08;98273.59;7002521;28;20255;-80
2022/09/26 00:48:37;;;;;;;13.17;9.47;;;;;;;16.98;59.95;98228.63;7001091;28;20287;-80
2022/09/26 00:52:03;;;;;;;13.83;9.80;;;;;;;16.73;60.91;98263.78;7002592;28;20343;-80
2022/09/26 00:55:27;;;;;;;13.77;9.60;;;;;;;16.69;61.51;98266.19;7001577;28;20192;-80
2022/09/26 00:58:52;;;;;;;13.90;9.23;;;;;;;16.86;61.57;98277.00;6999942;28;20226;-80
2022/09/26 01:02:15;;;;;;;13.30;10.17;;;;;;;16.68;62.25;98261.84;6985698;28;20645;-80
2022/09/26 01:05:38;;;;;;;14.20;9.63;;;;;;;17.02;61.48;98268.69;6976087;28;20199;-80
2022/09/26 01:09:02;;;;;;;13.33;8.83;;;;;;;17.01;61.80;98267.06;6975346;28;20326;-80
2022/09/26 01:12:23;;;;;;;10.93;8.10;;;;;;;17.22;60.56;98259.88;6975667;28;20279;-80
2022/09/26 01:15:45;;;;;;;12.37;8.87;;;;;;;16.94;61.54;98250.13;6974872;28;20215;-80
2022/09/26 01:19:12;;;;;;;11.20;7.53;;;;;;;16.65;61.13;98175.25;6972893;28;20317;-80
2022/09/26 01:23:02;;;;;;;11.33;8.30;;;;;;;17.08;61.29;98255.94;6973046;28;20190;-80
2022/09/26 01:26:30;;;;;;;9.73;8.10;;;;;;;17.18;60.88;98250.59;6973281;28;20284;-80
2022/09/26 01:30:13;;;;;;;13.77;8.97;;;;;;;16.79;61.85;98251.84;6972684;28;20312;-80
2022/09/26 01:33:43;;;;;;;10.97;8.17;;;;;;;16.81;62.13;98257.88;6973738;28;20297;-80
2022/09/26 01:37:09;;;;;;;12.43;9.07;;;;;;;16.79;61.18;98236.34;6973809;28;20327;-80
2022/09/26 01:40:33;;;;;;;12.27;8.67;;;;;;;16.98;61.27;98253.16;6973090;28;20212;-80
2022/09/26 01:43:58;;;;;;;12.30;7.83;;;;;;;16.92;61.71;98249.53;6973573;28;20341;-80
2022/09/26 01:47:24;;;;;;;11.43;8.50;;;;;;;16.73;61.70;98250.16;6972955;28;20230;-80
2022/09/26 01:50:49;;;;;;;12.03;9.43;;;;;;;16.47;62.79;98251.00;6972954;28;20220;-79
2022/09/26 01:54:14;;;;;;;10.70;9.03;;;;;;;16.77;62.18;98251.31;6973316;28;20259;-80
2022/09/26 01:57:39;;;;;;;10.37;8.60;;;;;;;16.67;61.87;98253.91;6972460;28;20232;-80
2022/09/26 02:01:05;;;;;;;9.03;7.50;;;;;;;17.05;60.30;98254.56;6971125;28;20307;-80
2022/09/26 02:04:31;;;;;;;13.10;8.13;;;;;;;16.97;60.28;98259.66;6972912;28;20201;-80
2022/09/26 02:07:56;;;;;;;15.07;8.07;;;;;;;16.66;60.68;98253.13;6972456;28;20358;-80
2022/09/26 02:11:18;;;;;;;12.33;8.30;;;;;;;16.60;61.69;98253.31;6973641;28;20254;-80
2022/09/26 02:14:40;;;;;;;9.13;7.83;;;;;;;16.57;61.18;98253.84;6972478;28;20249;-80
2022/09/26 02:18:06;;;;;;;14.93;8.83;;;;;;;16.68;60.57;98261.84;6972397;28;20236;-80
2022/09/26 02:21:29;;;;;;;12.80;7.80;;;;;;;16.51;60.73;98247.50;6973526;28;20211;-80
2022/09/26 02:24:51;;;;;;;11.87;7.50;;;;;;;16.41;61.25;98238.41;6971929;28;20206;-80
2022/09/26 02:28:13;;;;;;;16.30;8.07;;;;;;;16.32;62.01;98246.19;6971705;28;20652;-80
2022/09/26 02:31:37;;;;;;;10.23;8.37;;;;;;;16.20;62.25;98242.78;6971826;28;20215;-80
2022/09/26 02:35:00;;;;;;;13.17;8.73;;;;;;;16.41;61.82;98241.13;6972218;28;20298;-80
2022/09/26 02:38:24;;;;;;;11.60;8.50;;;;;;;16.29;61.39;98218.66;6971231;28;20779;-80
2022/09/26 02:41:49;;;;;;;12.17;9.40;;;;;;;16.21;61.61;98225.38;6972851;28;20281;-80
2022/09/26 02:45:21;;;;;;;10.40;8.27;;;;;;;16.27;61.75;98218.91;6973811;28;20239;-80
2022/09/26 02:48:51;;;;;;;12.87;9.10;;;;;;;15.81;62.50;98226.78;6972873;28;20230;-79
2022/09/26 02:52:20;;;;;;;13.93;9.70;;;;;;;15.84;62.69;98231.72;6973952;28;20340;-80
2022/09/26 02:55:47;;;;;;;12.80;9.00;;;;;;;15.99;62.58;98234.63;6973851;28;20282;-80
2022/09/26 02:59:15;;;;;;;14.10;8.57;;;;;;;16.05;62.33;98199.06;6983219;28;20288;-80
2022/09/26 03:02:40;;;;;;;11.67;8.97;;;;;;;16.11;62.71;98216.28;6999408;28;20212;-80
2022/09/26 03:06:04;;;;;;;12.13;9.23;;;;;;;16.04;62.31;98174.88;7001226;28;20538;-80
2022/09/26 03:09:27;;;;;;;11.03;8.27;;;;;;;16.31;62.16;98202.91;7000510;28;20262;-80
2022/09/26 03:12:51;;;;;;;13.03;8.67;;;;;;;16.17;61.85;98188.06;7001022;28;20205;-80
2022/09/26 03:16:13;;;;;;;8.70;7.87;;;;;;;16.34;60.96;98205.13;7001789;28;20612;-80
2022/09/26 03:19:38;;;;;;;9.90;8.00;;;;;;;16.08;61.05;98176.00;7003626;28;20222;-80
2022/09/26 03:22:59;;;;;;;12.07;8.30;;;;;;;16.06;61.11;98175.44;7005047;28;20201;-80
2022/09/26 03:26:23;;;;;;;10.40;7.53;;;;;;;16.08;61.46;98186.88;7005261;28;20295;-80
2022/09/26 03:29:46;;;;;;;9.43;8.43;;;;;;;16.09;61.67;98183.91;7004802;28;20652;-80
2022/09/26 03:33:08;;;;;;;10.13;7.67;;;;;;;16.12;60.79;98180.69;7004571;28;20210;-80
2022/09/26 03:36:31;;;;;;;9.43;7.30;;;;;;;16.05;61.20;98173.78;7005249;28;21012;-80
2022/09/26 03:39:52;;;;;;;13.90;8.70;;;;;;;15.94;61.72;98172.03;7004441;28;20226;-80
2022/09/26 03:43:14;;;;;;;11.97;9.30;;;;;;;15.99;62.03;98163.94;7005273;28;20548;-80
2022/09/26 03:46:37;;;;;;;13.53;9.57;;;;;;;16.06;61.96;98161.84;7004915;28;20300;-80
2022/09/26 03:49:58;;;;;;;11.37;9.27;;;;;;;16.02;61.38;98168.84;7004218;28;20222;-80
2022/09/26 03:53:20;;;;;;;14.43;9.00;;;;;;;16.15;61.39;98152.97;6987338;28;20214;-80
2022/09/26 03:56:41;;;;;;;11.67;9.33;;;;;;;16.18;61.01;98155.19;6977734;28;20206;-80
2022/09/26 04:00:06;;;;;;;13.73;10.13;;;;;;;16.06;61.26;98148.25;6976595;28;20263;-80
2022/09/26 04:03:32;;;;;;;13.20;8.97;;;;;;;15.62;62.07;98108.59;6979336;28;20202;-80
2022/09/26 04:06:54;;;;;;;12.50;9.60;;;;;;;15.87;62.07;98138.78;7004667;28;20394;-80
2022/09/26 04:10:15;;;;;;;11.87;9.27;;;;;;;16.04;62.08;98137.63;7016751;28;20267;-81
2022/09/26 04:13:37;;;;;;;14.00;9.50;;;;;;;16.07;61.47;98139.84;7024506;28;20214;-80
2022/09/26 04:16:59;;;;;;;13.30;9.63;;;;;;;15.92;61.46;98131.50;7005320;28;20303;-80
2022/09/26 04:20:22;;;;;;;12.33;8.40;;;;;;;15.78;61.74;98118.56;7004334;28;20781;-80
2022/09/26 04:23:44;;;;;;;14.43;10.00;;;;;;;15.90;61.93;98139.09;7004656;28;20290;-80
2022/09/26 04:27:07;;;;;;;14.07;9.77;;;;;;;15.76;61.16;98096.25;7005921;28;20725;-80
2022/09/26 04:30:29;;;;;;;12.43;10.20;;;;;;;15.72;62.02;98114.13;7005211;28;20286;-81
2022/09/26 04:33:50;;;;;;;15.27;10.07;;;;;;;15.86;61.70;98123.56;7006625;28;20217;-79
2022/09/26 04:37:13;;;;;;;13.37;10.53;;;;;;;15.91;61.52;98110.00;7003442;28;20305;-80
2022/09/26 04:40:35;;;;;;;17.70;11.57;;;;;;;15.74;61.74;98112.81;7003303;28;20205;-80
2022/09/26 04:44:00;;;;;;;16.10;12.00;;;;;;;15.82;61.96;98095.25;7003198;28;20689;-80
2022/09/26 04:47:22;;;;;;;15.77;11.53;;;;;;;15.85;61.54;98109.13;7002302;28;20221;-80
2022/09/26 04:50:43;;;;;;;15.07;11.70;;;;;;;15.94;61.21;98101.34;7002703;28;20229;-80
2022/09/26 04:54:07;;;;;;;17.87;12.97;;;;;;;15.81;60.95;98091.69;7002015;28;20324;-80
2022/09/26 04:57:28;;;;;;;14.13;11.00;;;;;;;15.77;61.44;98096.00;7003259;28;20219;-80
2022/09/26 05:00:51;;;;;;;17.47;13.40;;;;;;;15.49;61.91;98087.22;7003960;28;20849;-81
2022/09/26 05:04:12;;;;;;;17.73;12.73;;;;;;;15.61;62.25;98091.47;7003241;28;20205;-81
2022/09/26 05:07:34;;;;;;;14.77;12.10;;;;;;;15.75;61.38;98090.00;7006494;28;20230;-80
2022/09/26 05:10:57;;;;;;;16.80;10.90;;;;;;;15.82;60.94;98077.00;7005380;28;20253;-80
2022/09/26 05:14:18;;;;;;;12.80;11.00;;;;;;;15.37;61.55;98045.78;7004277;28;20254;-80
2022/09/26 05:17:42;;;;;;;14.40;12.03;;;;;;;15.63;61.63;98083.06;6997705;28;20698;-80
2022/09/26 05:21:04;;;;;;;15.00;12.53;;;;;;;15.73;61.60;98094.03;7005146;28;20634;-80
2022/09/26 05:28:06;;;;;;;17.33;12.80;;;;;;;15.63;61.16;98089.31;7007077;28;20225;-80
2022/09/26 05:31:28;;;;;;;13.27;11.37;;;;;;;15.58;60.72;98064.78;7005095;28;20229;-80
2022/09/26 05:34:50;;;;;;;14.30;11.10;;;;;;;15.46;61.69;98091.28;7003500;28;20346;-81
2022/09/26 05:38:12;;;;;;;17.20;13.03;;;;;;;15.48;61.17;98063.88;7003291;28;20221;-80
2022/09/26 05:41:32;;;;;;;16.23;11.80;;;;;;;15.48;61.19;98072.84;7003553;28;20620;-80
2022/09/26 05:44:55;;;;;;;16.23;13.30;;;;;;;15.55;61.58;98088.94;7004218;28;20667;-80
2022/09/26 05:48:17;;;;;;;18.53;13.23;;;;;;;15.62;61.43;98082.22;7002958;28;20852;-80
2022/09/26 05:51:40;;;;;;;15.00;12.67;;;;;;;15.70;61.19;98091.84;7003669;28;20268;-80
2022/09/26 05:55:01;;;;;;;18.63;14.13;;;;;;;15.02;62.14;98056.19;6988656;28;20202;-80
2022/09/26 05:58:23;;;;;;;16.10;12.87;;;;;;;15.28;62.29;98061.69;7002865;28;20270;-80
2022/09/26 06:01:49;;;;;;;20.00;13.87;;;;;;;15.20;62.77;98061.31;7002939;28;20214;-81
2022/09/26 06:05:10;;;;;;;19.03;13.00;;;;;;;15.70;61.70;98079.06;7007621;28;20267;-80
2022/09/26 06:08:32;;;;;;;21.90;14.43;;;;;;;15.79;62.06;98063.13;7005032;28;20312;-81
2022/09/26 06:11:53;;;;;;;14.43;12.17;;;;;;;15.99;61.26;98071.50;7006924;28;20294;-80
2022/09/26 06:15:16;;;;;;;12.63;11.00;;;;;;;16.14;60.67;98068.91;7021976;28;20679;-80
2022/09/26 06:18:40;;;;;;;11.70;10.43;;;;;;;16.26;60.56;98067.66;7003751;28;20225;-81
2022/09/26 06:22:02;;;;;;;10.70;9.70;;;;;;;16.38;60.19;98062.03;6998745;28;20291;-81
2022/09/26 06:25:23;;;;;;;8.80;7.90;;;;;;;16.27;58.84;98016.81;7006572;28;20198;-82
2022/09/26 06:28:45;;;;;;;11.10;8.00;;;;;;;16.33;58.76;98053.84;7002344;28;20221;-81
2022/09/26 06:32:07;;;;;;;8.43;6.63;;;;;;;16.58;57.63;98054.09;7003152;28;20202;-81
2022/09/26 06:35:30;;;;;;;7.70;6.67;;;;;;;16.64;57.95;98051.13;7002615;28;20195;-81
2022/09/26 06:38:53;;;;;;;7.23;5.67;;;;;;;16.78;56.08;98041.44;7003166;28;20223;-81
2022/09/26 06:42:15;;;;;;;7.80;6.40;;;;;;;16.23;58.83;98051.84;7003526;28;20297;-80
2022/09/26 06:45:36;;;;;;;6.83;5.70;;;;;;;17.15;56.90;98038.66;7002923;28;20289;-80
2022/09/26 06:48:58;;;;;;;6.97;4.83;;;;;;;17.53;54.73;98032.81;7003067;28;20310;-80
2022/09/26 06:52:21;;;;;;;5.67;4.87;;;;;;;17.59;54.44;98016.22;7000510;28;20226;-81
2022/09/26 06:55:42;;;;;;;5.90;4.93;;;;;;;17.35;53.11;97971.41;7005937;28;20297;-81
2022/09/26 06:59:04;;;;;;;4.90;4.40;;;;;;;17.42;53.61;98031.16;7004904;28;20713;-83
2022/09/26 07:02:26;;;;;;;4.87;4.43;;;;;;;17.20;54.67;97987.72;7001162;28;20293;-82
2022/09/26 07:05:48;;;;;;;5.77;4.40;;;;;;;17.23;54.59;98021.78;7008717;28;20195;-81
2022/09/26 07:09:11;;;;;;;6.17;4.80;;;;;;;17.76;54.84;98021.44;7007594;28;20374;-80
2022/09/26 07:12:32;;;;;;;5.17;4.53;;;;;;;17.92;54.75;98023.09;7005462;28;20695;-81
2022/09/26 07:15:56;;;;;;;5.20;4.73;;;;;;;17.96;54.18;98018.72;7008585;28;20328;-80
2022/09/26 07:19:18;;;;;;;4.43;3.90;;;;;;;17.19;56.92;98015.22;7007414;28;20298;-81
2022/09/26 07:22:39;;;;;;;4.53;3.93;;;;;;;17.60;55.50;98019.75;7015156;28;20292;-81
2022/09/26 07:26:02;;;;;;;3.73;3.30;;;;;;;17.68;53.96;98003.69;7008814;28;20323;-81
2022/09/26 07:29:23;;;;;;;3.77;3.47;;;;;;;17.57;54.77;98012.94;7008069;28;20234;-81
2022/09/26 07:32:46;;;;;;;6.73;3.77;;;;;;;17.11;54.12;97939.47;7005459;28;20212;-81
2022/09/26 07:36:08;;;;;;;3.63;3.33;;;;;;;17.77;52.99;97963.06;7007248;28;20199;-81
2022/09/26 07:39:30;;;;;;;3.77;3.37;;;;;;;18.25;52.04;97998.00;7008077;28;20293;-81
2022/09/26 07:42:53;;;;;;;3.80;3.50;;;;;;;17.62;53.82;98006.66;6999777;28;20298;-81
2022/09/26 07:50:13;;;;;;;4.10;3.73;;;;;;;18.18;52.69;98020.13;6989777;28;20251;-81
2022/09/26 07:53:35;;;;;;;3.90;3.60;;;;;;;17.91;53.03;97981.38;7000761;28;20192;-81
2022/09/26 07:56:57;;;;;;;4.40;3.80;;;;;;;18.63;52.57;98011.13;6980610;28;20746;-81
2022/09/26 08:00:20;;;;;;;4.67;3.60;;;;;;;18.14;53.19;98005.38;6996963;28;20204;-81
2022/09/26 08:03:43;;;;;;;4.13;3.63;;;;;;;17.73;53.04;98011.88;7005474;28;20229;-82
2022/09/26 08:07:04;;;;;;;3.93;3.53;;;;;;;16.94;55.71;97996.03;7007393;28;20224;-81
2022/09/26 08:10:26;;;;;;;4.57;3.17;;;;;;;18.24;54.25;97989.03;7017340;28;20313;-81
2022/09/26 08:13:48;;;;;;;3.50;3.20;;;;;;;18.35;54.11;97987.13;7007466;28;20273;-81
2022/09/26 08:17:11;;;;;;;4.80;3.23;;;;;;;18.97;51.27;97995.72;7031279;28;20221;-81
2022/09/26 08:20:34;;;;;;;3.77;2.80;;;;;;;18.66;50.69;97986.00;7007677;28;20343;-81
2022/09/26 08:23:56;;;;;;;3.10;2.83;;;;;;;18.19;51.48;97939.06;7006739;28;20217;-82
2022/09/26 08:27:18;;;;;;;3.57;3.27;;;;;;;18.89;49.68;97964.34;7011457;28;20338;-81
2022/09/26 08:30:39;;;;;;;5.57;3.37;;;;;;;18.22;49.99;97914.00;7006856;28;20276;-81
2022/09/26 08:34:02;;;;;;;3.40;3.10;;;;;;;18.91;49.50;97961.31;6996553;28;20232;-81
2022/09/26 08:37:26;;;;;;;2.97;2.73;;;;;;;19.08;49.97;97970.00;7001270;28;20224;-81
2022/09/26 08:40:53;;;;;;;3.60;2.87;;;;;;;19.22;49.28;97971.09;7016332;28;20207;-82
2022/09/26 08:44:30;;;;;;;3.13;2.83;;;;;;;19.29;48.64;97969.66;7017347;28;20205;-82
2022/09/26 08:47:58;;;;;;;5.67;2.70;;;;;;;19.59;47.60;97946.81;7012641;28;20241;-83
2022/09/26 08:51:29;;;;;;;4.27;2.60;;;;;;;19.74;46.58;97960.41;7012714;28;20222;-83
2022/09/26 08:54:53;;;;;;;3.37;2.70;;;;;;;19.72;46.50;97957.13;7005351;28;20323;-83
2022/09/26 08:58:18;;;;;;;3.33;2.80;;;;;;;18.14;49.62;97898.16;7005134;28;20355;-82
2022/09/26 09:01:41;;;;;;;3.27;2.60;;;;;;;20.14;47.74;97928.09;7006021;28;20257;-83
2022/09/26 09:05:06;;;;;;;3.30;3.00;;;;;;;21.24;45.34;97951.59;6997522;28;20290;-80
2022/09/26 09:08:34;;;;;;;2.60;2.37;;;;;;;22.03;43.03;97960.63;7002667;28;20324;-80
2022/09/26 09:12:07;;;;;;;4.03;2.87;;;;;;;22.27;43.62;97950.34;6997661;28;20214;-80
2022/09/26 09:15:51;;;;;;;4.83;2.53;;;;;;;22.00;42.27;97958.44;6995132;28;20619;-80
2022/09/26 09:19:20;;;;;;;5.13;2.80;;;;;;;20.83;43.97;97947.69;7002073;28;20311;-80
2022/09/26 09:22:52;;;;;;;3.60;2.47;;;;;;;21.56;42.33;97937.97;7002666;28;20288;-77
2022/09/26 09:26:20;;;;;;;4.57;2.73;;;;;;;21.80;41.28;97941.47;7003726;28;20978;-78
2022/09/26 09:29:55;;;;;;;4.90;3.03;;;;;;;21.90;41.82;97933.91;7000572;28;20652;-78
2022/09/26 09:33:19;;;;;;;2.60;2.40;;;;;;;22.16;40.07;97934.31;7001202;28;20202;-78
2022/09/26 09:36:42;;;;;;;4.43;2.70;;;;;;;21.71;40.64;97935.84;7001068;28;20299;-77
2022/09/26 09:40:07;;;;;;;2.80;2.60;;;;;;;21.49;40.90;97907.34;7000151;28;20297;-78
2022/09/26 09:43:32;;;;;;;3.93;2.20;;;;;;;22.03;40.73;97924.09;6997925;28;20291;-79
2022/09/26 09:46:53;;;;;;;5.80;2.67;;;;;;;21.20;41.97;97921.19;7000274;28;20337;-78
2022/09/26 09:50:18;;;;;;;4.97;2.80;;;;;;;20.92;43.47;97920.47;6993995;28;20227;-78
2022/09/26 09:53:52;;;;;;;3.37;2.60;;;;;;;21.84;40.95;97917.81;7000539;28;20210;-78
2022/09/26 09:57:48;;;;;;;3.73;2.27;;;;;;;22.21;39.73;97910.34;7002081;28;20368;-78
2022/09/26 10:01:17;;;;;;;4.40;2.60;;;;;;;21.43;42.11;97901.13;6973305;28;20200;-78
2022/09/26 10:04:42;;;;;;;2.50;2.30;;;;;;;21.10;41.31;97898.56;7002233;28;20284;-78
2022/09/26 10:08:10;;;;;;;3.77;2.40;;;;;;;21.06;43.58;97899.47;7001929;28;20232;-78
2022/09/26 10:11:40;;;;;;;3.07;2.40;;;;;;;22.05;40.74;97884.25;7002780;28;20251;-78
2022/09/26 10:15:04;;;;;;;3.10;2.30;;;;;;;22.19;39.30;97863.13;7002634;28;20224;-78
2022/09/26 10:18:27;;;;;;;6.17;2.57;;;;;;;22.39;39.67;97882.00;7002082;28;20221;-80
2022/09/26 10:21:51;;;;;;;2.67;1.90;;;;;;;22.33;39.31;97828.28;6982886;28;20344;-82
2022/09/26 10:25:18;;;;;;;3.10;2.20;;;;;;;22.39;38.91;97865.50;6976763;28;20203;-82
2022/09/26 10:28:45;;;;;;;3.03;1.80;;;;;;;23.04;39.03;97849.66;6978911;28;20305;-82
2022/09/26 10:32:08;;;;;;;6.90;2.30;;;;;;;22.93;37.01;97868.31;6981563;28;20226;-82
2022/09/26 10:35:41;;;;;;;3.53;2.10;;;;;;;22.32;38.94;97856.88;7007298;28;20256;-82
2022/09/26 10:42:45;;;;;;;2.20;2.00;;;;;;;21.93;38.80;97856.47;7008211;28;20182;-82
2022/09/26 10:46:10;;;;;;;3.30;2.00;;;;;;;21.12;39.18;97851.69;7008397;28;20210;-84
2022/09/26 10:49:40;;;;;;;2.33;2.00;;;;;;;20.49;40.17;97790.03;7009338;28;20224;-82
2022/09/26 10:53:07;;;;;;;2.17;1.90;;;;;;;21.63;39.79;97842.38;7009211;28;20198;-82
2022/09/26 10:56:31;;;;;;;3.00;2.10;;;;;;;23.07;36.42;97829.81;6993672;28;20209;-82
2022/09/26 10:59:53;;;;;;;2.27;1.90;;;;;;;23.80;35.83;97833.03;7006252;28;20238;-82
2022/09/26 11:03:17;;;;;;;4.10;2.50;;;;;;;22.14;36.83;97810.25;7008043;28;20217;-82
2022/09/26 11:06:42;;;;;;;1.93;1.83;;;;;;;22.06;36.86;97791.75;7009777;28;20674;-83
2022/09/26 11:10:10;;;;;;;2.30;2.10;;;;;;;22.24;36.69;97815.56;7011488;28;20185;-84
2022/09/26 11:13:39;;;;;;;3.03;1.77;;;;;;;22.41;35.84;97807.50;7003239;28;20208;-83
2022/09/26 11:17:02;;;;;;;2.13;1.97;;;;;;;22.44;36.78;97810.53;7015526;28;20233;-83
2022/09/26 11:20:32;;;;;;;2.20;1.60;;;;;;;22.03;36.28;97798.66;7007762;28;20206;-83
2022/09/26 11:23:59;;;;;;;2.37;1.47;;;;;;;21.48;37.24;97785.84;7007965;28;20211;-83
2022/09/26 11:27:30;;;;;;;2.77;1.77;;;;;;;21.19;38.46;97782.47;7011413;28;20226;-83
2022/09/26 11:30:55;;;;;;;3.20;2.00;;;;;;;22.12;36.80;97790.53;7007168;28;20215;-82
2022/09/26 11:34:22;;;;;;;2.80;1.60;;;;;;;21.51;36.43;97778.94;7007891;28;20196;-83
2022/09/26 11:38:02;;;;;;;2.43;1.40;;;;;;;21.11;36.49;97770.56;7006917;28;20327;-83
2022/09/26 11:41:38;;;;;;;2.30;1.83;;;;;;;22.11;36.29;97747.69;7007171;28;20449;-83
2022/09/26 11:45:05;;;;;;;3.13;1.90;;;;;;;22.50;35.86;97757.09;7007871;28;20190;-83
2022/09/26 11:48:40;;;;;;;5.43;1.67;;;;;;;21.74;38.76;97750.59;7007402;28;20225;-83
2022/09/26 11:52:14;;;;;;;2.10;1.77;;;;;;;21.69;38.39;97680.19;7007587;28;20307;-82
2022/09/26 11:55:54;;;;;;;1.77;1.67;;;;;;;22.72;34.92;97721.44;7008295;28;20189;-83
2022/09/26 11:59:27;;;;;;;2.17;1.50;;;;;;;22.91;33.60;97746.03;7012916;28;20222;-82
2022/09/26 12:03:05;;;;;;;3.17;1.53;;;;;;;22.21;34.93;97756.56;7006423;28;20213;-83
2022/09/26 12:06:32;;;;;;;1.17;1.10;;;;;;;21.44;36.46;97753.84;7007563;28;20213;-83
2022/09/26 12:10:06;;;;;;;1.60;1.03;;;;;;;20.77;35.23;97746.91;7006685;28;20232;-82
2022/09/26 12:13:35;;;;;;;2.90;1.60;;;;;;;20.45;35.59;97742.44;7007108;28;20260;-82
2022/09/26 12:17:00;;;;;;;1.47;1.37;;;;;;;22.33;34.20;97743.13;7006507;28;20236;-82
2022/09/26 12:20:29;;;;;;;1.07;0.90;;;;;;;23.48;30.96;97732.28;7006715;28;20259;-83
2022/09/26 12:23:53;;;;;;;1.20;1.10;;;;;;;22.07;32.55;97732.97;7020126;28;20285;-82
2022/09/26 12:27:19;;;;;;;1.37;1.30;;;;;;;21.74;34.13;97721.25;7034696;28;20319;-81
2022/09/26 12:30:46;;;;;;;1.50;1.40;;;;;;;22.22;34.12;97722.50;6980781;28;20225;-81
2022/09/26 12:34:36;;;;;;;1.80;1.60;;;;;;;22.16;33.98;97700.91;7000090;28;20228;-81
2022/09/26 12:38:36;;;;;;;2.17;1.43;;;;;;;22.17;35.02;97694.31;7006104;28;20293;-82
2022/09/26 12:42:09;;;;;;;1.43;1.33;;;;;;;22.59;33.40;97667.31;6937947;28;20639;-81
2022/09/26 12:45:48;;;;;;;2.00;1.37;;;;;;;22.70;33.49;97679.72;6978870;28;20192;-82
2022/09/26 12:49:25;;;;;;;2.03;1.53;;;;;;;23.37;33.28;97661.34;6978213;28;20315;-82
2022/09/26 12:53:03;;;;;;;1.50;1.40;;;;;;;23.78;32.49;97657.16;6978411;28;20612;-81
2022/09/26 12:56:36;;;;;;;3.10;1.70;;;;;;;23.58;32.14;97665.97;6978027;28;20200;-81
2022/09/26 13:00:11;;;;;;;1.40;1.30;;;;;;;22.45;32.48;97672.03;6977645;28;20292;-81
2022/09/26 13:03:51;;;;;;;1.50;1.40;;;;;;;21.76;33.97;97677.84;6977563;28;20245;-81
2022/09/26 13:07:18;;;;;;;1.37;1.27;;;;;;;21.26;33.34;97680.66;6978459;28;20273;-81
2022/09/26 13:11:00;;;;;;;2.03;1.30;;;;;;;21.45;33.32;97664.97;6978807;28;20221;-82
2022/09/26 13:14:52;;;;;;;1.20;1.10;;;;;;;20.40;34.77;97641.19;6978233;28;20242;-81
2022/09/26 13:18:17;;;;;;;1.37;1.13;;;;;;;20.89;34.38;97666.22;6973767;28;20226;-82
2022/09/26 13:21:44;;;;;;;2.57;1.13;;;;;;;20.44;35.55;97659.47;6978677;28;20766;-81
2022/09/26 13:25:17;;;;;;;2.77;1.17;;;;;;;20.93;35.42;97662.56;6978575;28;20670;-81
2022/09/26 13:28:43;;;;;;;2.30;1.37;;;;;;;20.90;35.68;97671.41;6977278;28;20230;-81
2022/09/26 13:32:14;;;;;;;4.57;1.90;;;;;;;20.14;37.28;97645.38;6977993;28;20226;-81
2022/09/26 13:35:38;;;;;;;2.10;1.20;;;;;;;20.12;37.02;97677.72;7002829;28;20244;-81
2022/09/26 13:39:02;;;;;;;1.27;1.17;;;;;;;19.99;37.29;97659.25;7005182;28;20324;-81
2022/09/26 13:42:30;;;;;;;1.37;1.27;;;;;;;19.05;38.80;97661.84;7005560;28;20229;-81
2022/09/26 13:45:59;;;;;;;1.00;1.00;;;;;;;18.99;39.18;97635.69;7005298;28;20272;-81
2022/09/26 13:49:33;;;;;;;2.23;1.10;;;;;;;19.11;39.46;97626.00;7004533;28;20590;-81
2022/09/26 13:53:03;;;;;;;1.20;1.10;;;;;;;19.53;38.16;97644.47;7005021;28;20221;-81
2022/09/26 13:56:29;;;;;;;1.57;1.30;;;;;;;19.63;38.44;97620.53;7004636;28;20189;-81
2022/09/26 13:59:53;;;;;;;1.30;1.20;;;;;;;20.17;36.96;97623.72;7012321;28;20229;-81
2022/09/26 14:03:44;;;;;;;1.80;1.10;;;;;;;20.58;36.30;97626.69;7030082;28;20666;-81
2022/09/26 14:11:07;;;;;;;1.70;1.20;;;;;;;20.35;37.67;97627.59;7036396;28;20209;-81
2022/09/26 14:14:42;;;;;;;1.53;1.20;;;;;;;20.43;37.85;97608.56;7032482;28;20197;-81
2022/09/26 14:18:23;;;;;;;1.30;1.20;;;;;;;21.14;36.35;97596.16;7032374;28;20287;-81
2022/09/26 14:21:59;;;;;;;1.00;1.00;;;;;;;21.67;36.22;97604.78;7033341;28;20217;-85
2022/09/26 14:25:55;;;;;;;2.10;1.20;;;;;;;20.58;36.76;97605.56;7032647;28;20561;-82
2022/09/26 14:29:25;;;;;;;1.60;1.17;;;;;;;21.08;36.30;97593.81;7031965;28;20309;-82
2022/09/26 14:32:46;;;;;;;1.23;1.07;;;;;;;20.96;36.44;97590.75;7033284;28;20224;-82
2022/09/26 14:36:24;;;;;;;2.63;1.20;;;;;;;21.27;36.31;97593.75;7006992;28;20208;-83
2022/09/26 14:39:46;;;;;;;1.10;1.10;;;;;;;20.91;36.58;97590.00;7003730;28;20226;-83
2022/09/26 14:43:14;;;;;;;0.97;0.87;;;;;;;20.64;36.10;97574.25;7004221;28;20203;-82
2022/09/26 14:46:36;;;;;;;1.47;1.37;;;;;;;20.21;37.40;97580.13;7000859;28;20189;-83
2022/09/26 14:50:01;;;;;;;1.27;1.17;;;;;;;19.95;38.05;97576.94;7003998;28;20201;-83
2022/09/26 14:53:26;;;;;;;3.90;1.50;;;;;;;20.31;37.80;97588.22;7004666;28;20224;-82
2022/09/26 14:56:49;;;;;;;2.13;1.37;;;;;;;19.95;38.27;97584.31;7003650;28;20679;-83
2022/09/26 15:00:35;;;;;;;1.70;1.60;;;;;;;19.66;37.31;97587.16;7003902;28;20572;-83
2022/09/26 15:03:59;;;;;;;2.23;1.47;;;;;;;19.91;36.77;97584.09;7003238;28;20190;-83
2022/09/26 15:07:22;;;;;;;1.67;1.20;;;;;;;20.16;37.43;97572.81;7001800;28;20217;-82
2022/09/26 15:10:45;;;;;;;2.23;1.70;;;;;;;19.95;37.67;97584.31;7003809;28;20666;-83
2022/09/26 15:14:16;;;;;;;2.27;1.50;;;;;;;19.49;38.77;97580.53;6990073;28;20206;-82
2022/09/26 15:17:41;;;;;;;2.20;1.30;;;;;;;19.41;38.83;97575.72;7008589;28;20232;-83
2022/09/26 15:21:09;;;;;;;2.67;1.60;;;;;;;19.58;38.14;97535.84;7022776;28;20205;-83
2022/09/26 15:24:32;;;;;;;1.40;1.30;;;;;;;19.64;39.30;97570.22;7037598;28;20620;-83
2022/09/26 15:27:55;;;;;;;2.57;1.53;;;;;;;18.66;39.23;97448.13;6992453;28;20242;-85
2022/09/26 15:31:26;;;;;;;1.60;1.40;;;;;;;19.67;39.04;97542.31;6984692;28;20249;-82
2022/09/26 15:34:50;;;;;;;1.10;1.10;;;;;;;20.05;37.96;97562.31;6997793;28;20210;-82
2022/09/26 15:38:12;;;;;;;2.30;1.50;;;;;;;20.28;37.70;97553.22;7006922;28;20694;-81
2022/09/26 15:45:25;;;;;;;3.93;1.70;;;;;;;20.49;36.34;97518.94;6980077;28;20183;-81
2022/09/26 15:48:47;;;;;;;1.17;1.17;;;;;;;19.95;36.55;97543.28;6981149;28;20581;-81
2022/09/26 15:52:11;;;;;;;1.30;1.20;;;;;;;19.96;37.20;97509.34;7006251;28;20225;-81
2022/09/26 15:55:34;;;;;;;1.23;1.13;;;;;;;19.73;37.68;97527.44;7006672;28;20210;-81
2022/09/26 15:58:59;;;;;;;2.03;1.07;;;;;;;19.65;37.26;97517.19;7007058;28;20225;-81
2022/09/26 16:02:22;;;;;;;2.10;1.07;;;;;;;19.66;37.27;97516.06;7007654;28;20206;-83
2022/09/26 16:05:44;;;;;;;2.83;1.33;;;;;;;20.13;37.36;97513.22;7007519;28;20202;-81
2022/09/26 16:09:13;;;;;;;1.57;1.10;;;;;;;20.48;36.12;97517.31;7006943;28;20225;-81
2022/09/26 16:12:39;;;;;;;1.80;1.40;;;;;;;19.66;37.73;97524.28;7001597;28;20206;-81
2022/09/26 16:16:02;;;;;;;2.37;1.70;;;;;;;19.71;38.04;97520.66;7006389;28;20296;-81
2022/09/26 16:19:33;;;;;;;2.00;1.57;;;;;;;19.72;38.39;97509.41;7006230;28;20835;-81
2022/09/26 16:22:55;;;;;;;3.10;1.30;;;;;;;19.56;38.95;97518.09;7006157;28;20209;-81